Time;durP1;ratioP1;P1;durP2;ratioP2;P2;SDS_P1;SDS_P2;PMS_P1;PMS_P2;Temp;Humidity;BMP_temperature;BMP_pressure;BME280_temperature;BME280_humidity;BME280_pressure;Samples;Min_cycle;Max_cycle;Signal;HPM_P1;HPM_P2
2021/05/22 00:00:38;;;;;;;18.27;2.03;;;10.50;99.90;;;;;;5048542;28;20244;-87
2021/05/22 00:03:04;;;;;;;1.20;0.77;;;10.50;99.90;;;;;;5046842;28;20233;-88
2021/05/22 00:05:30;;;;;;;3.47;2.10;;;10.40;99.90;;;;;;5065745;28;20667;-90
2021/05/22 00:07:55;;;;;;;14.47;1.97;;;10.40;99.90;;;;;;5038721;28;20231;-86
2021/05/22 00:10:21;;;;;;;4.17;1.23;;;10.40;99.90;;;;;;5039879;28;20239;-87
2021/05/22 00:12:47;;;;;;;2.50;1.40;;;10.40;99.90;;;;;;5047586;28;21244;-88
2021/05/22 00:15:16;;;;;;;8.10;1.47;;;10.40;99.90;;;;;;5031194;28;20217;-87
2021/05/22 00:17:42;;;;;;;1.60;1.50;;;10.40;99.90;;;;;;5065862;28;20656;-87
2021/05/22 00:20:10;;;;;;;4.40;1.13;;;10.50;99.90;;;;;;5048976;28;20227;-89
2021/05/22 00:22:36;;;;;;;1.67;1.10;;;10.50;99.90;;;;;;5046467;28;20217;-88
2021/05/22 00:25:04;;;;;;;2.43;1.60;;;10.50;99.90;;;;;;5064481;28;20244;-89
2021/05/22 00:27:30;;;;;;;5.80;1.20;;;10.50;99.90;;;;;;5064667;28;20217;-89
2021/05/22 00:29:55;;;;;;;11.07;2.80;;;10.50;99.90;;;;;;5064150;28;20221;-87
2021/05/22 00:32:21;;;;;;;3.53;1.30;;;10.50;99.90;;;;;;5057323;28;20563;-87
2021/05/22 00:34:47;;;;;;;8.27;1.40;;;10.50;99.90;;;;;;5027480;28;20714;-88
2021/05/22 00:37:13;;;;;;;2.50;1.60;;;10.50;99.90;;;;;;5043019;28;20240;-88
2021/05/22 00:39:38;;;;;;;2.30;1.00;;;10.50;99.90;;;;;;5059407;28;20300;-90
2021/05/22 00:42:05;;;;;;;8.97;1.53;;;10.50;99.90;;;;;;5045585;28;20248;-90
2021/05/22 00:44:32;;;;;;;5.97;1.40;;;10.40;99.90;;;;;;5064639;28;21056;-87
2021/05/22 00:46:59;;;;;;;2.60;1.30;;;10.40;99.90;;;;;;5047876;28;20355;-89
2021/05/22 00:49:26;;;;;;;4.10;1.70;;;10.40;99.90;;;;;;5047451;28;20225;-90
2021/05/22 00:51:51;;;;;;;5.50;1.43;;;10.40;99.90;;;;;;5046388;28;20240;-87
2021/05/22 00:54:18;;;;;;;0.73;0.70;;;10.40;99.90;;;;;;5042420;28;20225;-90
2021/05/22 00:56:46;;;;;;;4.07;0.90;;;10.30;99.90;;;;;;5034102;28;20193;-89
2021/05/22 00:59:14;;;;;;;13.27;1.60;;;10.40;99.90;;;;;;5042830;28;20246;-90
2021/05/22 01:01:41;;;;;;;6.83;2.03;;;10.30;99.90;;;;;;5058494;28;20394;-88
2021/05/22 01:04:07;;;;;;;3.30;1.43;;;10.40;99.90;;;;;;5045546;28;20206;-88
2021/05/22 01:06:34;;;;;;;1.30;1.10;;;10.30;99.90;;;;;;5047025;28;20687;-87
2021/05/22 01:09:11;;;;;;;8.60;2.03;;;10.40;99.90;;;;;;5043331;28;20250;-89
2021/05/22 01:11:54;;;;;;;2.60;1.50;;;10.30;99.90;;;;;;5045902;28;20225;-88
2021/05/22 01:14:38;;;;;;;4.90;1.50;;;10.30;99.90;;;;;;5063645;28;20189;-88
2021/05/22 01:17:05;;;;;;;4.13;0.90;;;10.30;99.90;;;;;;5062118;28;20224;-87
2021/05/22 01:19:52;;;;;;;3.47;1.20;;;10.30;99.90;;;;;;5043758;28;20229;-89
2021/05/22 01:22:19;;;;;;;2.53;1.37;;;10.30;99.90;;;;;;5055853;28;21318;-89
2021/05/22 01:24:53;;;;;;;4.27;1.30;;;10.30;99.90;;;;;;5045054;28;20228;-86
2021/05/22 01:27:19;;;;;;;3.00;0.93;;;10.20;99.90;;;;;;5054961;28;20212;-87
2021/05/22 01:29:46;;;;;;;8.87;1.40;;;10.20;99.90;;;;;;5043185;28;20717;-91
2021/05/22 01:32:12;;;;;;;6.73;1.33;;;10.20;99.90;;;;;;5071723;28;20246;-88
2021/05/22 01:34:39;;;;;;;5.60;1.43;;;10.20;99.90;;;;;;5032809;28;20217;-91
2021/05/22 01:37:06;;;;;;;1.70;1.60;;;10.20;99.90;;;;;;5049747;28;20228;-90
2021/05/22 01:39:31;;;;;;;2.73;0.90;;;10.20;99.90;;;;;;5057938;28;20311;-88
2021/05/22 01:41:57;;;;;;;7.07;1.33;;;10.10;99.90;;;;;;5045288;28;20585;-88
2021/05/22 01:44:26;;;;;;;4.57;1.60;;;10.20;99.90;;;;;;5063423;28;20189;-86
2021/05/22 01:46:53;;;;;;;3.60;0.97;;;10.20;99.90;;;;;;5042472;28;20218;-87
2021/05/22 01:49:25;;;;;;;1.03;0.83;;;10.10;99.90;;;;;;5057172;28;20226;-85
2021/05/22 01:51:54;;;;;;;2.00;1.57;;;10.10;99.90;;;;;;5062217;28;20221;-87
2021/05/22 01:54:22;;;;;;;2.57;1.07;;;10.10;99.90;;;;;;5079077;28;20306;-86
2021/05/22 01:56:49;;;;;;;2.70;1.20;;;10.10;99.90;;;;;;5059563;28;20181;-87
2021/05/22 01:59:19;;;;;;;3.00;1.70;;;10.10;99.90;;;;;;5043557;28;20258;-86
2021/05/22 02:01:51;;;;;;;3.70;1.07;;;10.10;99.90;;;;;;5060184;28;20245;-88
2021/05/22 02:04:26;;;;;;;4.30;2.30;;;10.10;99.90;;;;;;5063444;28;20294;-89
2021/05/22 02:06:54;;;;;;;6.40;0.80;;;10.10;99.90;;;;;;5062253;28;21226;-88
2021/05/22 02:09:22;;;;;;;1.83;1.57;;;10.20;99.90;;;;;;5061556;28;20575;-87
2021/05/22 02:11:50;;;;;;;3.97;2.23;;;10.20;99.90;;;;;;5061502;28;20213;-88
2021/05/22 02:14:30;;;;;;;9.40;1.23;;;10.10;99.90;;;;;;5064518;28;20181;-87
2021/05/22 02:16:57;;;;;;;4.37;1.50;;;10.20;99.90;;;;;;5061766;28;20217;-89
2021/05/22 02:19:25;;;;;;;6.13;0.90;;;10.10;99.90;;;;;;5062167;28;20821;-88
2021/05/22 02:21:53;;;;;;;3.43;1.00;;;10.20;99.90;;;;;;5063292;28;20216;-90
2021/05/22 02:24:24;;;;;;;6.30;1.67;;;10.20;99.90;;;;;;5060393;28;20237;-88
2021/05/22 02:26:55;;;;;;;2.90;0.90;;;10.20;99.90;;;;;;5062905;28;20648;-89
2021/05/22 02:29:22;;;;;;;3.73;1.50;;;10.20;99.90;;;;;;5063189;28;20219;-88
2021/05/22 02:31:49;;;;;;;10.90;1.60;;;10.20;99.90;;;;;;5044277;28;20244;-87
2021/05/22 02:34:26;;;;;;;2.47;1.50;;;10.20;99.90;;;;;;5046409;28;20275;-87
2021/05/22 02:36:54;;;;;;;2.50;1.33;;;10.20;99.90;;;;;;5053431;28;20221;-90
2021/05/22 02:39:21;;;;;;;0.83;0.70;;;10.20;99.90;;;;;;5061964;28;20258;-89
2021/05/22 02:41:48;;;;;;;3.23;2.13;;;10.20;99.90;;;;;;5059282;28;20189;-87
2021/05/22 02:44:16;;;;;;;0.90;0.90;;;10.20;99.90;;;;;;5043868;28;20186;-88
2021/05/22 02:46:46;;;;;;;2.03;1.00;;;10.20;99.90;;;;;;5042576;28;20224;-85
2021/05/22 02:49:15;;;;;;;3.63;1.37;;;10.20;99.90;;;;;;5041144;28;20239;-86
2021/05/22 02:51:42;;;;;;;1.23;0.60;;;10.20;99.90;;;;;;5050731;28;20221;-88
2021/05/22 02:54:09;;;;;;;3.97;1.47;;;10.20;99.90;;;;;;5061376;28;20260;-89
2021/05/22 02:56:36;;;;;;;3.70;1.60;;;10.20;99.90;;;;;;5060103;28;20215;-88
2021/05/22 02:59:03;;;;;;;2.10;1.47;;;10.20;99.90;;;;;;5042976;28;20197;-89
2021/05/22 03:01:31;;;;;;;8.40;1.93;;;10.20;99.90;;;;;;5058209;28;20241;-88
2021/05/22 03:03:59;;;;;;;2.67;0.73;;;10.10;99.90;;;;;;5064882;28;20750;-90
2021/05/22 03:06:25;;;;;;;1.23;1.13;;;10.10;99.90;;;;;;5063722;28;20285;-89
2021/05/22 03:08:51;;;;;;;6.07;0.80;;;10.10;99.90;;;;;;5062409;28;21012;-87
2021/05/22 03:11:19;;;;;;;3.23;2.10;;;10.20;99.90;;;;;;5044489;28;20241;-88
2021/05/22 03:13:46;;;;;;;7.07;1.23;;;10.20;99.90;;;;;;5059638;28;20675;-90
2021/05/22 03:16:12;;;;;;;6.00;0.97;;;10.30;99.90;;;;;;5050528;28;20590;-88
2021/05/22 03:18:38;;;;;;;8.27;2.17;;;10.30;99.90;;;;;;5060067;28;20224;-91
2021/05/22 03:21:04;;;;;;;9.83;1.30;;;10.30;99.90;;;;;;5059810;28;20850;-87
2021/05/22 03:23:30;;;;;;;0.47;0.47;;;10.30;99.90;;;;;;5061017;28;20193;-87
2021/05/22 03:25:56;;;;;;;4.13;1.47;;;10.30;99.90;;;;;;5059468;28;20277;-89
2021/05/22 03:28:22;;;;;;;3.80;1.37;;;10.30;99.90;;;;;;5058801;28;20224;-89
2021/05/22 03:30:49;;;;;;;5.43;0.90;;;10.30;99.90;;;;;;5048023;28;20236;-86
2021/05/22 03:33:16;;;;;;;1.90;0.43;;;10.30;99.90;;;;;;5041242;28;20217;-88
2021/05/22 03:35:42;;;;;;;1.60;1.07;;;10.20;99.90;;;;;;5050172;28;20698;-87
2021/05/22 03:38:08;;;;;;;0.80;0.80;;;10.30;99.90;;;;;;5061819;28;21314;-88
2021/05/22 03:40:34;;;;;;;0.40;0.40;;;10.20;99.90;;;;;;5043101;28;20225;-90
2021/05/22 03:42:59;;;;;;;4.37;1.60;;;10.30;99.90;;;;;;5037701;28;20221;-90
2021/05/22 03:45:25;;;;;;;1.13;1.07;;;10.20;99.90;;;;;;5047680;28;21289;-89
2021/05/22 03:47:51;;;;;;;0.60;0.40;;;10.30;99.90;;;;;;5082431;28;21861;-91
2021/05/22 03:50:17;;;;;;;1.83;0.67;;;10.30;99.90;;;;;;5065907;28;20213;-90
2021/05/22 03:52:43;;;;;;;1.00;0.63;;;10.30;99.90;;;;;;5082237;28;20685;-91
2021/05/22 03:55:10;;;;;;;3.80;1.13;;;10.30;99.90;;;;;;5065843;28;20557;-89
2021/05/22 03:57:36;;;;;;;3.63;1.37;;;10.30;99.90;;;;;;5039433;28;20220;-91
2021/05/22 04:00:04;;;;;;;3.53;1.87;;;10.30;99.90;;;;;;5034465;28;20217;-92
2021/05/22 04:02:30;;;;;;;0.80;0.70;;;10.30;99.90;;;;;;5084853;28;20216;-91
2021/05/22 04:04:55;;;;;;;2.83;1.20;;;10.30;99.90;;;;;;5047751;28;20788;-86
2021/05/22 04:07:21;;;;;;;1.47;0.73;;;10.30;99.90;;;;;;5051724;28;20222;-91
2021/05/22 04:09:47;;;;;;;0.87;0.87;;;10.30;99.90;;;;;;5050457;28;20269;-87
2021/05/22 04:12:13;;;;;;;2.47;0.90;;;10.30;99.90;;;;;;5023491;28;20210;-87
2021/05/22 04:14:39;;;;;;;3.00;1.10;;;10.30;99.90;;;;;;5064887;28;20664;-89
2021/05/22 04:17:05;;;;;;;1.80;1.10;;;10.30;99.90;;;;;;5049431;28;20189;-86
2021/05/22 04:19:30;;;;;;;2.93;1.53;;;10.20;99.90;;;;;;5047422;28;21079;-89
2021/05/22 04:21:56;;;;;;;1.10;0.83;;;10.20;99.90;;;;;;5048212;28;20225;-90
2021/05/22 04:24:22;;;;;;;0.67;0.63;;;10.20;99.90;;;;;;5073562;28;20671;-88
2021/05/22 04:26:48;;;;;;;1.50;1.40;;;10.20;99.90;;;;;;5066022;28;20651;-88
2021/05/22 04:29:13;;;;;;;1.83;1.10;;;10.20;99.90;;;;;;5068061;28;20201;-88
2021/05/22 04:31:39;;;;;;;0.80;0.80;;;10.20;99.90;;;;;;5040483;28;20225;-90
2021/05/22 04:34:05;;;;;;;5.00;1.40;;;10.20;99.90;;;;;;5056657;28;21049;-87
2021/05/22 04:36:31;;;;;;;0.67;0.63;;;10.20;99.90;;;;;;5067371;28;20686;-89
2021/05/22 04:38:57;;;;;;;4.40;1.40;;;10.20;99.90;;;;;;5066873;28;20228;-92
2021/05/22 04:41:22;;;;;;;4.07;1.30;;;10.20;99.90;;;;;;5035269;28;20192;-87
2021/05/22 04:43:48;;;;;;;0.87;0.87;;;10.20;99.90;;;;;;5047234;28;20240;-89
2021/05/22 04:46:14;;;;;;;3.07;1.33;;;10.30;99.90;;;;;;5060970;28;20246;-88
2021/05/22 04:48:40;;;;;;;1.37;1.00;;;10.30;99.90;;;;;;5049915;28;20743;-88
2021/05/22 04:51:06;;;;;;;3.40;2.23;;;10.30;99.90;;;;;;5047414;28;20255;-90
2021/05/22 04:53:35;;;;;;;0.73;0.60;;;10.30;99.90;;;;;;5062616;28;20683;-86
2021/05/22 04:56:01;;;;;;;2.27;1.23;;;10.40;99.90;;;;;;5068046;28;20177;-86
2021/05/22 04:58:26;;;;;;;4.77;1.30;;;10.40;99.90;;;;;;5057957;28;20219;-87
2021/05/22 05:00:52;;;;;;;3.00;1.13;;;10.50;99.90;;;;;;5054807;28;20274;-86
2021/05/22 05:03:18;;;;;;;1.30;1.20;;;10.50;99.90;;;;;;5044215;28;20701;-89
2021/05/22 05:05:45;;;;;;;2.90;1.13;;;10.60;99.90;;;;;;5067025;28;20214;-88
2021/05/22 05:08:18;;;;;;;4.93;1.43;;;10.60;99.90;;;;;;5047082;28;20687;-90
2021/05/22 05:10:45;;;;;;;6.77;0.87;;;10.60;99.90;;;;;;5065994;28;20224;-90
2021/05/22 05:13:12;;;;;;;1.43;1.07;;;10.70;99.90;;;;;;5041832;28;20281;-89
2021/05/22 05:15:38;;;;;;;5.90;1.33;;;10.70;99.90;;;;;;5066225;28;21222;-91
2021/05/22 05:18:04;;;;;;;0.60;0.60;;;10.70;99.90;;;;;;5066018;28;20219;-88
2021/05/22 05:20:30;;;;;;;4.73;0.80;;;10.80;99.90;;;;;;5051101;28;20196;-87
2021/05/22 05:22:55;;;;;;;2.00;0.90;;;10.90;99.90;;;;;;5048981;28;20597;-90
2021/05/22 05:25:21;;;;;;;6.93;1.20;;;10.90;99.90;;;;;;5034161;28;20256;-88
2021/05/22 05:27:47;;;;;;;7.13;1.47;;;11.00;99.90;;;;;;5026619;28;20225;-88
2021/05/22 05:30:13;;;;;;;5.20;1.53;;;11.00;99.90;;;;;;5045414;28;20251;-88
2021/05/22 05:32:39;;;;;;;5.43;1.93;;;11.10;99.90;;;;;;5060468;28;20190;-89
2021/05/22 05:35:05;;;;;;;2.60;1.40;;;11.10;99.90;;;;;;5050672;28;20204;-91
2021/05/22 05:37:31;;;;;;;3.63;1.50;;;11.10;99.90;;;;;;5031159;28;20566;-87
2021/05/22 05:39:57;;;;;;;7.73;1.53;;;11.10;99.90;;;;;;5028034;28;20213;-89
2021/05/22 05:42:22;;;;;;;8.00;2.07;;;11.10;99.90;;;;;;5035410;28;20675;-87
2021/05/22 05:44:48;;;;;;;6.73;2.43;;;11.10;99.90;;;;;;5049960;28;20249;-88
2021/05/22 05:47:14;;;;;;;2.80;1.70;;;11.10;99.90;;;;;;5067727;28;20206;-86
2021/05/22 05:49:40;;;;;;;3.17;1.40;;;11.20;99.90;;;;;;5032577;28;20590;-87
2021/05/22 05:52:06;;;;;;;6.83;2.57;;;11.20;99.90;;;;;;5049469;28;20261;-89
2021/05/22 05:54:31;;;;;;;4.73;1.40;;;11.20;99.90;;;;;;5064613;28;20213;-88
2021/05/22 05:56:57;;;;;;;5.23;2.07;;;11.20;99.90;;;;;;5065494;28;20223;-88
2021/05/22 05:59:23;;;;;;;0.77;0.77;;;11.20;99.90;;;;;;5050358;28;20192;-89
2021/05/22 06:01:48;;;;;;;2.13;1.93;;;11.20;99.90;;;;;;5029716;28;20235;-89
2021/05/22 06:04:14;;;;;;;3.70;1.40;;;11.20;99.90;;;;;;5028558;28;20240;-90
2021/05/22 06:06:40;;;;;;;3.07;1.20;;;11.10;99.90;;;;;;5028869;28;20308;-89
2021/05/22 06:09:06;;;;;;;5.97;2.23;;;11.20;99.90;;;;;;5033512;28;20223;-88
2021/05/22 06:11:34;;;;;;;6.57;1.77;;;11.30;99.90;;;;;;5065222;28;20277;-85
2021/05/22 06:14:00;;;;;;;4.70;2.07;;;11.40;99.90;;;;;;5050233;28;20180;-89
2021/05/22 06:16:33;;;;;;;5.13;1.90;;;11.50;99.90;;;;;;5050700;28;20225;-89
2021/05/22 06:18:59;;;;;;;5.33;2.43;;;11.50;99.90;;;;;;5075045;28;20349;-88
2021/05/22 06:21:24;;;;;;;3.57;1.77;;;11.60;99.90;;;;;;5040654;28;20232;-92
2021/05/22 06:23:50;;;;;;;1.17;1.07;;;11.50;99.90;;;;;;5065647;28;20215;-86
2021/05/22 06:26:16;;;;;;;5.43;2.13;;;11.60;99.90;;;;;;5050148;28;20280;-89
2021/05/22 06:28:42;;;;;;;1.90;1.60;;;11.60;99.90;;;;;;5042957;28;20703;-90
2021/05/22 06:31:08;;;;;;;1.50;1.10;;;11.70;99.90;;;;;;5082383;28;20216;-86
2021/05/22 06:33:35;;;;;;;6.83;1.00;;;11.70;99.90;;;;;;5047515;28;20228;-88
2021/05/22 06:36:01;;;;;;;4.07;1.73;;;11.70;99.90;;;;;;5033071;28;20224;-88
2021/05/22 06:38:27;;;;;;;1.17;0.90;;;11.70;99.90;;;;;;5066731;28;20177;-89
2021/05/22 06:40:53;;;;;;;8.20;1.57;;;11.60;99.90;;;;;;5047603;28;20223;-86
2021/05/22 06:43:20;;;;;;;1.23;1.10;;;11.70;99.90;;;;;;5034729;28;20228;-87
2021/05/22 06:45:57;;;;;;;7.77;2.77;;;11.60;99.90;;;;;;5052487;28;20295;-87
2021/05/22 06:48:23;;;;;;;4.10;2.53;;;11.60;99.90;;;;;;5036439;28;20761;-87
2021/05/22 06:50:48;;;;;;;2.63;2.07;;;11.70;99.90;;;;;;5053753;28;20232;-86
2021/05/22 06:53:14;;;;;;;3.77;1.43;;;11.80;99.90;;;;;;5065364;28;20227;-88
2021/05/22 06:55:40;;;;;;;1.50;0.93;;;11.90;99.90;;;;;;5064788;28;20250;-86
2021/05/22 06:58:06;;;;;;;1.53;1.30;;;12.00;99.90;;;;;;5031698;28;20719;-87
2021/05/22 07:00:32;;;;;;;1.20;1.10;;;12.00;99.90;;;;;;5047896;28;20298;-87
2021/05/22 07:02:58;;;;;;;2.63;1.20;;;12.10;99.90;;;;;;5079031;28;20288;-87
2021/05/22 07:05:24;;;;;;;2.40;1.67;;;12.10;99.90;;;;;;5029668;28;20266;-89
2021/05/22 07:07:50;;;;;;;0.97;0.97;;;12.10;99.90;;;;;;5044787;28;20591;-88
2021/05/22 07:10:16;;;;;;;4.70;1.47;;;12.10;99.90;;;;;;5058415;28;20687;-89
2021/05/22 07:12:42;;;;;;;5.27;1.63;;;12.20;99.90;;;;;;5064152;28;20231;-87
2021/05/22 07:15:10;;;;;;;4.90;1.30;;;12.30;99.90;;;;;;5064630;28;20216;-86
2021/05/22 07:17:35;;;;;;;6.10;1.23;;;12.30;99.90;;;;;;5063971;28;20185;-89
2021/05/22 07:20:03;;;;;;;0.87;0.73;;;12.20;99.90;;;;;;5084091;28;20204;-88
2021/05/22 07:22:29;;;;;;;5.60;1.63;;;12.20;99.90;;;;;;5064023;28;20265;-88
2021/05/22 07:24:55;;;;;;;3.17;1.40;;;12.20;99.90;;;;;;5063503;28;20225;-90
2021/05/22 07:27:21;;;;;;;4.60;1.67;;;12.30;99.90;;;;;;5064750;28;20224;-90
2021/05/22 07:29:48;;;;;;;4.00;1.20;;;12.20;99.90;;;;;;5063481;28;21025;-90
2021/05/22 07:32:14;;;;;;;2.50;0.87;;;12.10;99.90;;;;;;5066052;28;20181;-90
2021/05/22 07:34:40;;;;;;;2.20;1.50;;;11.90;99.90;;;;;;5051303;28;21052;-90
2021/05/22 07:37:06;;;;;;;1.93;1.10;;;11.90;99.90;;;;;;5068189;28;20224;-87
2021/05/22 07:39:32;;;;;;;0.67;0.67;;;12.00;99.90;;;;;;5060215;28;20213;-89
2021/05/22 07:41:58;;;;;;;8.77;1.30;;;12.00;99.90;;;;;;5035187;28;20231;-89
2021/05/22 07:44:24;;;;;;;1.90;1.23;;;12.20;99.90;;;;;;5070458;28;20320;-89
2021/05/22 07:46:50;;;;;;;2.90;0.97;;;12.10;99.90;;;;;;5050857;28;20212;-86
2021/05/22 07:49:16;;;;;;;3.70;1.17;;;12.10;99.90;;;;;;5052262;28;20208;-87
2021/05/22 07:51:42;;;;;;;14.97;1.30;;;12.10;99.90;;;;;;5058255;28;20229;-90
2021/05/22 07:54:09;;;;;;;2.80;1.73;;;12.00;99.90;;;;;;5048646;28;20866;-90
2021/05/22 07:56:35;;;;;;;5.07;1.87;;;12.00;99.90;;;;;;5031133;28;20195;-86
2021/05/22 07:59:00;;;;;;;3.13;1.50;;;12.00;99.90;;;;;;5062734;28;20193;-88
2021/05/22 08:01:26;;;;;;;1.77;1.30;;;12.00;99.90;;;;;;5060789;28;20684;-87
2021/05/22 08:03:52;;;;;;;3.20;1.53;;;12.10;99.90;;;;;;5074733;28;20515;-88
2021/05/22 08:06:18;;;;;;;2.57;1.13;;;12.20;99.90;;;;;;5057738;28;20703;-88
2021/05/22 08:08:44;;;;;;;5.87;1.87;;;12.30;99.90;;;;;;5068686;28;20195;-86
2021/05/22 08:11:11;;;;;;;5.03;1.30;;;12.60;99.90;;;;;;5069673;28;20296;-89
2021/05/22 08:13:37;;;;;;;6.07;0.93;;;12.90;99.90;;;;;;5050722;28;20240;-89
2021/05/22 08:16:03;;;;;;;1.53;0.60;;;13.00;99.90;;;;;;5050102;28;20628;-88
2021/05/22 08:18:29;;;;;;;4.97;1.53;;;12.90;99.90;;;;;;5050186;28;20825;-88
2021/05/22 08:20:56;;;;;;;6.27;1.13;;;12.80;99.90;;;;;;5050453;28;20278;-88
2021/05/22 08:23:22;;;;;;;2.70;1.03;;;12.80;99.90;;;;;;5052018;28;20207;-86
2021/05/22 08:25:48;;;;;;;5.30;1.43;;;12.60;99.90;;;;;;5033649;28;20220;-85
2021/05/22 08:28:20;;;;;;;3.40;1.70;;;12.60;99.90;;;;;;5050076;28;20553;-87
2021/05/22 08:30:49;;;;;;;2.60;1.37;;;12.80;99.90;;;;;;5059652;28;20296;-86
2021/05/22 08:33:15;;;;;;;1.07;0.97;;;13.00;99.90;;;;;;5040266;28;20303;-89
2021/05/22 08:35:42;;;;;;;1.60;1.50;;;13.00;99.90;;;;;;5075171;28;20825;-86
2021/05/22 08:38:08;;;;;;;1.67;0.93;;;13.20;99.90;;;;;;5048845;28;20204;-86
2021/05/22 08:40:34;;;;;;;4.60;0.93;;;13.40;99.90;;;;;;5065303;28;20233;-87
2021/05/22 08:43:00;;;;;;;3.83;1.60;;;13.30;99.90;;;;;;5063465;28;20568;-88
2021/05/22 08:45:26;;;;;;;0.73;0.73;;;13.20;99.90;;;;;;5059519;28;20734;-87
2021/05/22 08:47:53;;;;;;;2.07;1.03;;;13.10;99.90;;;;;;5047404;28;21449;-89
2021/05/22 08:50:20;;;;;;;3.10;1.07;;;13.00;99.90;;;;;;5032033;28;20730;-88
2021/05/22 08:52:46;;;;;;;0.93;0.93;;;12.90;99.90;;;;;;5064575;28;20220;-88
2021/05/22 08:55:13;;;;;;;1.47;1.17;;;13.10;99.90;;;;;;5063716;28;20220;-87
2021/05/22 08:57:39;;;;;;;2.27;1.20;;;13.10;99.90;;;;;;5067222;28;20235;-86
2021/05/22 09:00:09;;;;;;;7.60;1.43;;;13.20;99.90;;;;;;5066956;28;20295;-89
2021/05/22 09:02:35;;;;;;;1.00;1.00;;;13.00;99.90;;;;;;5085015;28;20228;-88
2021/05/22 09:05:09;;;;;;;5.17;1.43;;;12.80;99.90;;;;;;5066071;28;20398;-87
2021/05/22 09:07:40;;;;;;;3.33;1.43;;;12.70;99.90;;;;;;5083685;28;20265;-89
2021/05/22 09:10:12;;;;;;;1.57;1.17;;;12.80;99.90;;;;;;5058056;28;20892;-87
2021/05/22 09:12:42;;;;;;;7.60;0.97;;;12.90;99.90;;;;;;5069807;28;20225;-85
2021/05/22 09:15:13;;;;;;;3.87;1.70;;;12.90;99.90;;;;;;5078675;28;20217;-88
2021/05/22 09:17:57;;;;;;;3.43;2.30;;;12.70;99.90;;;;;;5039197;28;20193;-88
2021/05/22 09:20:33;;;;;;;2.17;1.97;;;12.60;99.90;;;;;;5060285;28;21284;-86
2021/05/22 09:23:08;;;;;;;3.70;0.80;;;12.60;99.90;;;;;;5065143;28;20231;-91
2021/05/22 09:25:47;;;;;;;4.83;1.17;;;12.50;99.90;;;;;;5065490;28;20216;-87
2021/05/22 09:28:16;;;;;;;2.23;0.83;;;12.70;99.90;;;;;;5065263;28;20239;-86
2021/05/22 09:30:49;;;;;;;2.67;1.53;;;12.70;99.90;;;;;;5081806;28;21052;-88
2021/05/22 09:33:20;;;;;;;7.43;1.23;;;13.00;99.90;;;;;;5066388;28;20220;-88
2021/05/22 09:35:57;;;;;;;5.80;1.03;;;12.90;99.90;;;;;;5055564;28;20263;-88
2021/05/22 09:38:43;;;;;;;0.80;0.80;;;12.60;99.90;;;;;;5074787;28;20301;-88
2021/05/22 09:41:31;;;;;;;3.50;0.90;;;12.50;99.90;;;;;;5064304;28;20229;-90
2021/05/22 09:44:25;;;;;;;2.73;0.80;;;12.40;99.90;;;;;;5064953;28;20223;-87
2021/05/22 09:46:51;;;;;;;1.03;0.87;;;12.30;99.90;;;;;;5046875;28;20270;-88
2021/05/22 09:49:25;;;;;;;1.03;1.03;;;12.30;99.90;;;;;;5058036;28;20303;-88
2021/05/22 09:51:56;;;;;;;3.43;0.70;;;12.30;99.90;;;;;;5082228;28;20236;-87
2021/05/22 09:54:47;;;;;;;1.30;0.87;;;12.30;99.90;;;;;;5074513;28;20220;-86
2021/05/22 09:57:35;;;;;;;1.60;1.23;;;12.50;99.90;;;;;;5067067;28;20255;-88
2021/05/22 10:00:20;;;;;;;3.70;1.23;;;12.70;99.90;;;;;;5077352;28;20236;-86
2021/05/22 10:02:50;;;;;;;11.17;1.40;;;12.70;99.90;;;;;;5031295;28;20241;-89
2021/05/22 10:05:15;;;;;;;2.40;1.10;;;12.90;99.90;;;;;;5084214;28;20659;-87
2021/05/22 10:07:42;;;;;;;2.93;1.73;;;13.10;99.90;;;;;;5082385;28;20333;-88
2021/05/22 10:10:08;;;;;;;2.30;1.40;;;13.10;99.90;;;;;;5040302;28;21185;-88
2021/05/22 10:12:36;;;;;;;1.77;0.60;;;12.80;99.90;;;;;;5039070;28;20243;-88
2021/05/22 10:15:04;;;;;;;1.57;0.83;;;12.80;99.90;;;;;;5035803;28;20339;-89
2021/05/22 10:17:30;;;;;;;1.53;0.73;;;12.80;99.90;;;;;;5045898;28;20246;-89
2021/05/22 10:19:56;;;;;;;0.53;0.53;;;12.60;99.90;;;;;;5019908;28;20213;-87
2021/05/22 10:22:22;;;;;;;7.57;1.37;;;12.40;99.90;;;;;;5047605;28;20244;-86
2021/05/22 10:24:51;;;;;;;0.33;0.33;;;12.30;99.90;;;;;;5064402;28;20339;-88
2021/05/22 10:27:20;;;;;;;4.73;0.90;;;12.40;99.90;;;;;;5053711;28;20217;-90
2021/05/22 10:29:45;;;;;;;1.23;1.20;;;12.50;99.90;;;;;;5059417;28;20275;-88
2021/05/22 10:32:22;;;;;;;2.03;0.40;;;12.60;99.90;;;;;;5063152;28;20226;-87
2021/05/22 10:34:49;;;;;;;0.90;0.90;;;13.00;99.90;;;;;;5059328;28;20212;-87
2021/05/22 10:37:48;;;;;;;2.03;0.87;;;13.30;99.90;;;;;;5043182;28;20223;-87
2021/05/22 10:40:35;;;;;;;0.63;0.63;;;13.50;99.90;;;;;;5059898;28;20228;-89
2021/05/22 10:43:01;;;;;;;0.43;0.43;;;13.10;99.90;;;;;;5066056;28;20212;-89
2021/05/22 10:45:34;;;;;;;4.20;1.13;;;13.10;99.90;;;;;;5043540;28;20797;-89
2021/05/22 10:48:02;;;;;;;4.47;1.07;;;13.20;99.90;;;;;;5074727;28;20225;-89
2021/05/22 10:50:42;;;;;;;3.03;0.60;;;13.20;99.90;;;;;;5059913;28;20205;-88
2021/05/22 10:53:20;;;;;;;3.80;1.33;;;13.30;99.90;;;;;;5052995;28;20685;-90
2021/05/22 10:56:02;;;;;;;1.17;0.70;;;13.30;99.90;;;;;;5062823;28;20255;-90
2021/05/22 10:58:28;;;;;;;1.27;0.47;;;13.50;99.90;;;;;;5063251;28;20270;-89
2021/05/22 11:01:26;;;;;;;0.93;0.83;;;14.00;99.90;;;;;;5051885;28;20750;-86
2021/05/22 11:04:07;;;;;;;2.00;0.90;;;13.80;99.90;;;;;;5066580;28;20615;-87
2021/05/22 11:06:43;;;;;;;5.43;1.27;;;13.90;99.90;;;;;;5052876;28;20228;-88
2021/05/22 11:11:58;;;;;;;2.53;0.90;;;13.50;99.90;;;;;;5045643;28;20263;-88
2021/05/22 11:14:50;;;;;;;0.97;0.90;;;13.20;99.90;;;;;;5048168;28;20190;-89
2021/05/22 11:17:19;;;;;;;1.90;1.27;;;13.00;99.90;;;;;;5060130;28;20233;-89
2021/05/22 11:19:57;;;;;;;0.83;0.83;;;13.00;99.90;;;;;;5036031;28;20237;-88
2021/05/22 11:22:29;;;;;;;2.00;1.10;;;13.20;99.90;;;;;;5053219;28;20222;-86
2021/05/22 11:25:04;;;;;;;10.80;2.43;;;13.40;99.90;;;;;;5042530;28;20221;-88
2021/05/22 11:27:51;;;;;;;0.70;0.70;;;13.40;99.90;;;;;;5044398;28;20597;-89
2021/05/22 11:30:27;;;;;;;7.07;0.97;;;13.30;99.90;;;;;;5039552;28;20310;-90
2021/05/22 11:32:58;;;;;;;0.53;0.53;;;13.20;99.90;;;;;;5046452;28;20880;-87
2021/05/22 11:35:34;;;;;;;0.90;0.57;;;13.00;99.90;;;;;;5049802;28;20200;-87
2021/05/22 11:38:17;;;;;;;0.70;0.70;;;12.80;99.90;;;;;;5044715;28;20259;-88
2021/05/22 11:40:43;;;;;;;2.53;1.30;;;12.80;99.90;;;;;;5049896;28;20326;-86
2021/05/22 11:43:15;;;;;;;3.60;1.63;;;12.90;99.90;;;;;;5039633;28;21119;-88
2021/05/22 11:45:48;;;;;;;1.70;1.60;;;12.80;99.90;;;;;;5039584;28;20230;-92
2021/05/22 11:48:32;;;;;;;1.87;1.57;;;12.60;99.90;;;;;;5038711;28;20609;-87
2021/05/22 11:50:58;;;;;;;1.50;1.20;;;12.20;99.90;;;;;;5043327;28;20233;-89
2021/05/22 11:53:28;;;;;;;1.00;0.80;;;12.10;99.90;;;;;;5044147;28;20205;-87
2021/05/22 11:56:14;;;;;;;0.70;0.70;;;12.20;99.90;;;;;;5039203;28;20221;-89
2021/05/22 11:58:53;;;;;;;3.93;1.07;;;11.90;99.90;;;;;;5046985;28;20218;-89
2021/05/22 12:01:20;;;;;;;2.10;1.90;;;11.80;99.90;;;;;;5037596;28;20221;-90
2021/05/22 12:03:49;;;;;;;1.07;1.07;;;11.80;99.90;;;;;;5069287;28;20230;-90
2021/05/22 12:06:25;;;;;;;1.03;0.93;;;12.10;99.90;;;;;;5064024;28;20237;-89
2021/05/22 12:09:20;;;;;;;1.37;1.27;;;12.50;99.90;;;;;;5061351;28;20331;-92
2021/05/22 12:12:06;;;;;;;1.40;1.30;;;12.50;99.90;;;;;;5059811;28;20237;-87
2021/05/22 12:14:46;;;;;;;3.10;1.47;;;12.20;99.90;;;;;;5064983;28;20181;-90
2021/05/22 12:17:17;;;;;;;0.40;0.40;;;12.00;99.90;;;;;;5046075;28;20174;-91
2021/05/22 12:19:45;;;;;;;11.00;1.27;;;12.00;99.90;;;;;;5037214;28;20213;-90
2021/05/22 12:22:13;;;;;;;2.97;2.10;;;12.20;99.90;;;;;;5063716;28;20621;-90
2021/05/22 12:24:39;;;;;;;8.73;2.10;;;12.60;99.90;;;;;;5046682;28;20256;-88
2021/05/22 12:27:06;;;;;;;3.63;1.60;;;12.90;99.90;;;;;;5043523;28;20214;-89
2021/05/22 12:29:32;;;;;;;9.43;1.03;;;13.10;99.90;;;;;;5044920;28;20197;-84
2021/05/22 12:32:04;;;;;;;0.77;0.77;;;13.20;99.90;;;;;;5081145;28;20237;-92
2021/05/22 12:34:35;;;;;;;4.30;1.47;;;13.10;99.90;;;;;;5063665;28;20221;-92
2021/05/22 12:37:05;;;;;;;5.87;1.07;;;13.10;99.90;;;;;;5068030;28;20228;-92
2021/05/22 12:39:42;;;;;;;0.90;0.90;;;12.50;99.90;;;;;;5063749;28;20393;-90
2021/05/22 12:42:17;;;;;;;1.07;0.97;;;11.90;99.90;;;;;;5057003;28;20312;-95
2021/05/22 12:44:44;;;;;;;2.43;2.27;;;11.90;99.90;;;;;;5052794;28;20196;-92
2021/05/22 12:47:11;;;;;;;2.93;1.70;;;12.20;99.90;;;;;;5054365;28;20189;-92
2021/05/22 12:49:37;;;;;;;1.60;1.27;;;12.40;99.90;;;;;;5044265;28;20301;-89
2021/05/22 12:52:10;;;;;;;2.33;0.87;;;12.60;99.90;;;;;;5022692;28;20259;-90
2021/05/22 12:54:36;;;;;;;1.20;1.10;;;12.40;99.90;;;;;;5062039;28;20213;-94
2021/05/22 12:57:23;;;;;;;2.03;0.93;;;12.20;99.90;;;;;;5049125;28;20547;-94